sensor_id;sensor_type;location;lat;lon;timestamp;pressure;altitude;pressure_sealevel;temperature;humidity
5952;BME280;3001;42.622;23.194;2023-02-20T00:01:26;91655.47;;;9.87;74.50
5952;BME280;3001;42.622;23.194;2023-02-20T00:03:54;91644.03;;;9.75;75.10
5952;BME280;3001;42.622;23.194;2023-02-20T00:06:21;91653.69;;;9.69;75.06
5952;BME280;3001;42.622;23.194;2023-02-20T00:08:48;91657.72;;;9.62;76.42
5952;BME280;3001;42.622;23.194;2023-02-20T00:11:14;91654.31;;;9.48;76.96
5952;BME280;3001;42.622;23.194;2023-02-20T00:13:45;91659.03;;;9.59;76.17
5952;BME280;3001;42.622;23.194;2023-02-20T00:16:12;91665.81;;;9.74;76.35
5952;BME280;3001;42.622;23.194;2023-02-20T00:18:39;91675.25;;;9.83;75.93
5952;BME280;3001;42.622;23.194;2023-02-20T00:21:06;91672.09;;;9.86;76.31
5952;BME280;3001;42.622;23.194;2023-02-20T00:23:33;91662.78;;;9.99;76.36
5952;BME280;3001;42.622;23.194;2023-02-20T00:26:00;91660.31;;;10.07;75.51
5952;BME280;3001;42.622;23.194;2023-02-20T00:28:27;91665.78;;;10.19;75.30
5952;BME280;3001;42.622;23.194;2023-02-20T00:30:55;91668.78;;;10.26;74.79
5952;BME280;3001;42.622;23.194;2023-02-20T00:33:22;91668.31;;;10.24;74.53
5952;BME280;3001;42.622;23.194;2023-02-20T00:35:49;91669.94;;;10.33;74.89
5952;BME280;3001;42.622;23.194;2023-02-20T00:38:16;91663.59;;;10.26;74.42
5952;BME280;3001;42.622;23.194;2023-02-20T00:40:43;91660.03;;;10.35;74.45
5952;BME280;3001;42.622;23.194;2023-02-20T00:43:10;91655.91;;;10.34;74.19
5952;BME280;3001;42.622;23.194;2023-02-20T00:45:36;91656.28;;;10.28;74.22
5952;BME280;3001;42.622;23.194;2023-02-20T00:48:05;91647.22;;;10.26;74.21
5952;BME280;3001;42.622;23.194;2023-02-20T00:50:31;91641.66;;;10.32;73.61
5952;BME280;3001;42.622;23.194;2023-02-20T00:52:58;91641.56;;;10.10;73.93
5952;BME280;3001;42.622;23.194;2023-02-20T00:55:25;91655.72;;;10.04;74.57
5952;BME280;3001;42.622;23.194;2023-02-20T00:57:52;91667.50;;;9.97;74.52
5952;BME280;3001;42.622;23.194;2023-02-20T01:00:21;91675.78;;;9.67;75.36
5952;BME280;3001;42.622;23.194;2023-02-20T01:02:49;91684.13;;;9.64;76.12
5952;BME280;3001;42.622;23.194;2023-02-20T01:05:17;91682.09;;;9.47;76.63
5952;BME280;3001;42.622;23.194;2023-02-20T01:07:44;91677.47;;;9.26;78.02
5952;BME280;3001;42.622;23.194;2023-02-20T01:10:11;91677.81;;;9.38;78.03
5952;BME280;3001;42.622;23.194;2023-02-20T01:12:38;91681.91;;;9.25;78.68
5952;BME280;3001;42.622;23.194;2023-02-20T01:15:07;91686.78;;;9.27;79.34
5952;BME280;3001;42.622;23.194;2023-02-20T01:17:34;91698.34;;;9.34;79.25
5952;BME280;3001;42.622;23.194;2023-02-20T01:20:01;91696.72;;;9.38;78.68
5952;BME280;3001;42.622;23.194;2023-02-20T01:22:29;91694.38;;;9.23;79.50
5952;BME280;3001;42.622;23.194;2023-02-20T01:24:55;91700.06;;;9.25;80.58
5952;BME280;3001;42.622;23.194;2023-02-20T01:27:22;91680.69;;;9.36;80.23
5952;BME280;3001;42.622;23.194;2023-02-20T01:29:49;91668.41;;;9.42;80.63
5952;BME280;3001;42.622;23.194;2023-02-20T01:32:15;91661.66;;;9.27;80.72
5952;BME280;3001;42.622;23.194;2023-02-20T01:34:42;91646.81;;;9.14;81.47
5952;BME280;3001;42.622;23.194;2023-02-20T01:37:10;91655.91;;;9.30;83.18
5952;BME280;3001;42.622;23.194;2023-02-20T01:39:40;91646.94;;;9.41;83.71
5952;BME280;3001;42.622;23.194;2023-02-20T01:42:12;91653.19;;;9.54;82.91
5952;BME280;3001;42.622;23.194;2023-02-20T01:44:42;91663.84;;;9.52;89.89
5952;BME280;3001;42.622;23.194;2023-02-20T01:47:11;91666.53;;;9.47;91.63
5952;BME280;3001;42.622;23.194;2023-02-20T01:49:44;91684.19;;;9.45;92.71
5952;BME280;3001;42.622;23.194;2023-02-20T01:52:15;91680.75;;;9.50;91.89
5952;BME280;3001;42.622;23.194;2023-02-20T01:54:47;91686.47;;;9.47;93.05
5952;BME280;3001;42.622;23.194;2023-02-20T01:57:17;91690.63;;;9.48;93.03
5952;BME280;3001;42.622;23.194;2023-02-20T01:59:46;91692.94;;;9.49;93.36
5952;BME280;3001;42.622;23.194;2023-02-20T02:02:15;91695.19;;;9.37;93.36
5952;BME280;3001;42.622;23.194;2023-02-20T02:04:44;91717.75;;;9.37;93.75
5952;BME280;3001;42.622;23.194;2023-02-20T02:07:12;91712.94;;;9.12;95.75
5952;BME280;3001;42.622;23.194;2023-02-20T02:09:45;91723.56;;;9.29;92.61
5952;BME280;3001;42.622;23.194;2023-02-20T02:12:13;91721.97;;;9.14;91.47
5952;BME280;3001;42.622;23.194;2023-02-20T02:14:39;91707.00;;;9.11;89.10
5952;BME280;3001;42.622;23.194;2023-02-20T02:17:20;91718.28;;;9.20;89.60
5952;BME280;3001;42.622;23.194;2023-02-20T02:23:53;91727.50;;;9.08;86.12
5952;BME280;3001;42.622;23.194;2023-02-20T02:26:44;91731.13;;;9.07;83.35
5952;BME280;3001;42.622;23.194;2023-02-20T02:29:38;91733.75;;;9.25;86.06
5952;BME280;3001;42.622;23.194;2023-02-20T02:32:21;91741.94;;;9.32;84.43
5952;BME280;3001;42.622;23.194;2023-02-20T02:38:16;91757.41;;;9.19;82.48
5952;BME280;3001;42.622;23.194;2023-02-20T02:40:53;91766.25;;;9.18;82.91
5952;BME280;3001;42.622;23.194;2023-02-20T02:43:27;91765.25;;;9.32;83.58
5952;BME280;3001;42.622;23.194;2023-02-20T02:46:01;91763.81;;;9.26;81.81
5952;BME280;3001;42.622;23.194;2023-02-20T02:48:34;91750.75;;;9.31;79.31
5952;BME280;3001;42.622;23.194;2023-02-20T02:51:06;91759.53;;;9.17;82.22
5952;BME280;3001;42.622;23.194;2023-02-20T02:53:36;91751.81;;;9.12;81.99
5952;BME280;3001;42.622;23.194;2023-02-20T02:56:03;91764.19;;;8.96;81.94
5952;BME280;3001;42.622;23.194;2023-02-20T02:58:46;91752.44;;;9.04;81.27
5952;BME280;3001;42.622;23.194;2023-02-20T03:01:14;91754.47;;;9.07;82.54
5952;BME280;3001;42.622;23.194;2023-02-20T03:03:44;91757.00;;;9.12;80.05
5952;BME280;3001;42.622;23.194;2023-02-20T03:06:14;91754.69;;;9.10;82.60
5952;BME280;3001;42.622;23.194;2023-02-20T03:08:48;91759.44;;;9.22;79.91
5952;BME280;3001;42.622;23.194;2023-02-20T03:11:23;91773.69;;;9.24;81.67
5952;BME280;3001;42.622;23.194;2023-02-20T03:13:52;91764.81;;;9.07;81.35
5952;BME280;3001;42.622;23.194;2023-02-20T03:16:42;91754.28;;;9.03;80.65
5952;BME280;3001;42.622;23.194;2023-02-20T03:19:11;91734.63;;;8.97;81.66
5952;BME280;3001;42.622;23.194;2023-02-20T03:21:41;91757.72;;;8.75;83.37
5952;BME280;3001;42.622;23.194;2023-02-20T03:24:12;91770.47;;;8.72;81.35
5952;BME280;3001;42.622;23.194;2023-02-20T03:26:40;91791.75;;;8.69;81.17
5952;BME280;3001;42.622;23.194;2023-02-20T03:29:12;91794.84;;;8.66;81.28
5952;BME280;3001;42.622;23.194;2023-02-20T03:31:43;91794.09;;;8.65;81.16
5952;BME280;3001;42.622;23.194;2023-02-20T03:34:15;91795.38;;;8.68;80.89
5952;BME280;3001;42.622;23.194;2023-02-20T03:37:06;91809.34;;;8.67;80.20
5952;BME280;3001;42.622;23.194;2023-02-20T03:39:57;91800.81;;;8.66;79.67
5952;BME280;3001;42.622;23.194;2023-02-20T03:42:46;91795.38;;;8.68;79.58
5952;BME280;3001;42.622;23.194;2023-02-20T03:45:35;91796.41;;;8.67;79.25
5952;BME280;3001;42.622;23.194;2023-02-20T03:48:07;91816.84;;;8.68;79.75
5952;BME280;3001;42.622;23.194;2023-02-20T03:50:35;91809.84;;;8.92;78.64
5952;BME280;3001;42.622;23.194;2023-02-20T03:53:19;91805.28;;;8.84;78.50
5952;BME280;3001;42.622;23.194;2023-02-20T03:55:49;91794.63;;;8.86;78.23
5952;BME280;3001;42.622;23.194;2023-02-20T03:58:20;91793.28;;;8.70;78.74
5952;BME280;3001;42.622;23.194;2023-02-20T04:00:50;91786.28;;;8.70;79.81
5952;BME280;3001;42.622;23.194;2023-02-20T04:03:20;91793.53;;;8.68;79.73
5952;BME280;3001;42.622;23.194;2023-02-20T04:05:50;91785.69;;;8.55;79.97
5952;BME280;3001;42.622;23.194;2023-02-20T04:08:19;91785.06;;;8.40;81.55
5952;BME280;3001;42.622;23.194;2023-02-20T04:10:51;91779.16;;;8.34;81.75
5952;BME280;3001;42.622;23.194;2023-02-20T04:13:21;91790.75;;;8.42;80.45
5952;BME280;3001;42.622;23.194;2023-02-20T04:15:49;91794.22;;;8.32;80.16
5952;BME280;3001;42.622;23.194;2023-02-20T04:18:18;91796.13;;;8.22;78.38
5952;BME280;3001;42.622;23.194;2023-02-20T04:20:48;91797.78;;;8.36;78.29
5952;BME280;3001;42.622;23.194;2023-02-20T04:23:17;91812.16;;;8.47;78.95
5952;BME280;3001;42.622;23.194;2023-02-20T04:25:48;91796.03;;;8.55;79.78
5952;BME280;3001;42.622;23.194;2023-02-20T04:28:19;91786.59;;;8.64;81.22
5952;BME280;3001;42.622;23.194;2023-02-20T04:30:47;91780.16;;;8.61;80.77
5952;BME280;3001;42.622;23.194;2023-02-20T04:33:14;91791.56;;;8.60;79.64
5952;BME280;3001;42.622;23.194;2023-02-20T04:35:41;91812.94;;;8.71;78.88
5952;BME280;3001;42.622;23.194;2023-02-20T04:38:08;91807.59;;;8.62;77.36
5952;BME280;3001;42.622;23.194;2023-02-20T04:40:35;91819.56;;;8.58;77.76
5952;BME280;3001;42.622;23.194;2023-02-20T04:43:02;91830.03;;;8.72;79.00
5952;BME280;3001;42.622;23.194;2023-02-20T04:45:31;91838.34;;;8.69;79.58
5952;BME280;3001;42.622;23.194;2023-02-20T04:47:57;91842.78;;;8.87;78.25
5952;BME280;3001;42.622;23.194;2023-02-20T04:50:26;91820.88;;;8.79;77.93
5952;BME280;3001;42.622;23.194;2023-02-20T04:52:53;91849.81;;;8.86;78.15
5952;BME280;3001;42.622;23.194;2023-02-20T04:55:20;91807.16;;;8.79;78.27
5952;BME280;3001;42.622;23.194;2023-02-20T04:57:48;91844.19;;;8.79;78.00
5952;BME280;3001;42.622;23.194;2023-02-20T05:00:16;91864.38;;;8.82;76.56
5952;BME280;3001;42.622;23.194;2023-02-20T05:02:44;91846.88;;;8.69;74.98
5952;BME280;3001;42.622;23.194;2023-02-20T05:05:16;91857.09;;;8.84;75.18
5952;BME280;3001;42.622;23.194;2023-02-20T05:07:43;91849.41;;;8.74;75.81
5952;BME280;3001;42.622;23.194;2023-02-20T05:10:12;91864.56;;;8.62;74.41
5952;BME280;3001;42.622;23.194;2023-02-20T05:12:40;91870.06;;;8.56;74.26
5952;BME280;3001;42.622;23.194;2023-02-20T05:15:07;91872.22;;;8.49;74.42
5952;BME280;3001;42.622;23.194;2023-02-20T05:17:34;91881.72;;;8.53;74.58
5952;BME280;3001;42.622;23.194;2023-02-20T05:20:04;91868.25;;;8.56;74.00
5952;BME280;3001;42.622;23.194;2023-02-20T05:22:30;91868.53;;;8.55;73.73
5952;BME280;3001;42.622;23.194;2023-02-20T05:24:57;91864.16;;;8.51;73.45
5952;BME280;3001;42.622;23.194;2023-02-20T05:27:24;91858.22;;;8.50;73.73
5952;BME280;3001;42.622;23.194;2023-02-20T05:29:52;91855.78;;;8.35;74.30
5952;BME280;3001;42.622;23.194;2023-02-20T05:32:21;91866.38;;;8.34;73.73
5952;BME280;3001;42.622;23.194;2023-02-20T05:34:48;91875.44;;;8.36;74.21
5952;BME280;3001;42.622;23.194;2023-02-20T05:37:17;91862.34;;;8.23;74.69
5952;BME280;3001;42.622;23.194;2023-02-20T05:39:45;91864.97;;;8.13;75.87
5952;BME280;3001;42.622;23.194;2023-02-20T05:42:12;91855.81;;;7.97;77.12
5952;BME280;3001;42.622;23.194;2023-02-20T05:44:39;91875.13;;;8.04;76.94
5952;BME280;3001;42.622;23.194;2023-02-20T05:47:06;91859.41;;;8.01;77.62
5952;BME280;3001;42.622;23.194;2023-02-20T05:49:34;91884.28;;;7.97;77.51
5952;BME280;3001;42.622;23.194;2023-02-20T05:52:01;91895.44;;;8.26;77.99
5952;BME280;3001;42.622;23.194;2023-02-20T05:54:29;91913.94;;;8.43;76.47
5952;BME280;3001;42.622;23.194;2023-02-20T05:56:56;91910.19;;;8.30;76.46
5952;BME280;3001;42.622;23.194;2023-02-20T05:59:23;91910.44;;;8.57;75.64
5952;BME280;3001;42.622;23.194;2023-02-20T06:01:55;91917.03;;;8.45;75.88
5952;BME280;3001;42.622;23.194;2023-02-20T06:04:21;91907.72;;;8.44;76.44
5952;BME280;3001;42.622;23.194;2023-02-20T06:06:48;91910.22;;;8.53;76.00
5952;BME280;3001;42.622;23.194;2023-02-20T06:09:15;91904.53;;;8.52;76.82
5952;BME280;3001;42.622;23.194;2023-02-20T06:11:47;91902.94;;;8.55;77.42
5952;BME280;3001;42.622;23.194;2023-02-20T06:14:15;91911.75;;;8.54;76.62
5952;BME280;3001;42.622;23.194;2023-02-20T06:16:43;91916.22;;;8.49;75.91
5952;BME280;3001;42.622;23.194;2023-02-20T06:19:10;91925.19;;;8.61;76.33
5952;BME280;3001;42.622;23.194;2023-02-20T06:21:37;91929.69;;;8.51;75.62
5952;BME280;3001;42.622;23.194;2023-02-20T06:24:06;91926.44;;;8.64;76.77
5952;BME280;3001;42.622;23.194;2023-02-20T06:26:38;91921.75;;;8.66;75.84
5952;BME280;3001;42.622;23.194;2023-02-20T06:29:06;91922.78;;;8.65;76.17
5952;BME280;3001;42.622;23.194;2023-02-20T06:31:33;91934.38;;;8.72;76.14
5952;BME280;3001;42.622;23.194;2023-02-20T06:34:00;91912.63;;;8.73;74.78
5952;BME280;3001;42.622;23.194;2023-02-20T06:36:29;91917.78;;;8.78;74.99
5952;BME280;3001;42.622;23.194;2023-02-20T06:38:55;91933.53;;;8.82;72.85
5952;BME280;3001;42.622;23.194;2023-02-20T06:41:22;91926.16;;;8.94;73.28
5952;BME280;3001;42.622;23.194;2023-02-20T06:43:49;91938.66;;;8.87;71.81
5952;BME280;3001;42.622;23.194;2023-02-20T06:46:17;91949.19;;;8.95;72.32
5952;BME280;3001;42.622;23.194;2023-02-20T06:48:44;91957.88;;;8.81;71.62
5952;BME280;3001;42.622;23.194;2023-02-20T06:51:11;91962.75;;;8.87;72.55
5952;BME280;3001;42.622;23.194;2023-02-20T06:53:38;91955.97;;;8.91;71.72
5952;BME280;3001;42.622;23.194;2023-02-20T06:56:07;91959.47;;;9.05;71.09
5952;BME280;3001;42.622;23.194;2023-02-20T06:58:35;91957.31;;;8.89;71.64
5952;BME280;3001;42.622;23.194;2023-02-20T07:01:02;91964.75;;;8.95;71.50
5952;BME280;3001;42.622;23.194;2023-02-20T07:03:30;91971.88;;;9.08;70.88
5952;BME280;3001;42.622;23.194;2023-02-20T07:05:56;91961.06;;;9.01;70.16
5952;BME280;3001;42.622;23.194;2023-02-20T07:08:23;91973.19;;;9.06;70.28
5952;BME280;3001;42.622;23.194;2023-02-20T07:10:50;91973.84;;;8.93;69.91
5952;BME280;3001;42.622;23.194;2023-02-20T07:13:19;91992.28;;;8.86;69.46
5952;BME280;3001;42.622;23.194;2023-02-20T07:15:46;91961.84;;;8.73;70.69
5952;BME280;3001;42.622;23.194;2023-02-20T07:18:13;91977.91;;;8.70;70.37
5952;BME280;3001;42.622;23.194;2023-02-20T07:20:42;91977.50;;;8.87;69.73
5952;BME280;3001;42.622;23.194;2023-02-20T07:23:09;91973.72;;;8.79;69.55
5952;BME280;3001;42.622;23.194;2023-02-20T07:25:36;91970.75;;;8.57;66.57
5952;BME280;3001;42.622;23.194;2023-02-20T07:28:03;91978.34;;;8.82;66.53
5952;BME280;3001;42.622;23.194;2023-02-20T07:30:32;91994.84;;;8.91;66.54
5952;BME280;3001;42.622;23.194;2023-02-20T07:32:59;91988.56;;;8.69;65.60
5952;BME280;3001;42.622;23.194;2023-02-20T07:35:26;92000.88;;;8.82;66.08
5952;BME280;3001;42.622;23.194;2023-02-20T07:37:54;91989.22;;;8.84;66.14
5952;BME280;3001;42.622;23.194;2023-02-20T07:40:20;91977.31;;;9.07;65.43
5952;BME280;3001;42.622;23.194;2023-02-20T07:42:47;91999.06;;;8.49;66.05
5952;BME280;3001;42.622;23.194;2023-02-20T07:45:14;91982.72;;;8.53;65.09
5952;BME280;3001;42.622;23.194;2023-02-20T07:47:40;91985.44;;;8.72;65.25
5952;BME280;3001;42.622;23.194;2023-02-20T07:50:07;91992.84;;;8.83;64.23
5952;BME280;3001;42.622;23.194;2023-02-20T07:52:34;91999.88;;;8.78;63.38
5952;BME280;3001;42.622;23.194;2023-02-20T07:55:02;91978.91;;;8.79;60.86
5952;BME280;3001;42.622;23.194;2023-02-20T07:57:31;91997.44;;;8.91;61.57
5952;BME280;3001;42.622;23.194;2023-02-20T07:59:59;92011.84;;;9.02;62.53
5952;BME280;3001;42.622;23.194;2023-02-20T08:02:26;91993.91;;;8.77;59.26
5952;BME280;3001;42.622;23.194;2023-02-20T08:04:52;91999.19;;;8.96;61.46
5952;BME280;3001;42.622;23.194;2023-02-20T08:07:19;92012.16;;;8.96;62.10
5952;BME280;3001;42.622;23.194;2023-02-20T08:09:46;91999.59;;;9.08;59.42
5952;BME280;3001;42.622;23.194;2023-02-20T08:12:14;92013.16;;;9.28;60.31
5952;BME280;3001;42.622;23.194;2023-02-20T08:14:41;92009.63;;;9.19;60.82
5952;BME280;3001;42.622;23.194;2023-02-20T08:17:07;92036.91;;;9.12;61.07
5952;BME280;3001;42.622;23.194;2023-02-20T08:19:36;92001.06;;;9.19;60.15
5952;BME280;3001;42.622;23.194;2023-02-20T08:22:02;92012.59;;;9.31;59.65
5952;BME280;3001;42.622;23.194;2023-02-20T08:24:29;92017.09;;;9.21;60.23
5952;BME280;3001;42.622;23.194;2023-02-20T08:26:56;92023.97;;;9.35;60.05
5952;BME280;3001;42.622;23.194;2023-02-20T08:29:24;92007.47;;;9.26;59.04
5952;BME280;3001;42.622;23.194;2023-02-20T08:31:50;92010.31;;;9.25;61.11
5952;BME280;3001;42.622;23.194;2023-02-20T08:34:17;92008.13;;;9.37;61.96
5952;BME280;3001;42.622;23.194;2023-02-20T08:36:44;92016.41;;;9.39;60.54
5952;BME280;3001;42.622;23.194;2023-02-20T08:39:10;92035.06;;;9.41;58.60
5952;BME280;3001;42.622;23.194;2023-02-20T08:41:41;92032.56;;;9.54;56.39
5952;BME280;3001;42.622;23.194;2023-02-20T08:44:07;92025.47;;;9.65;58.59
5952;BME280;3001;42.622;23.194;2023-02-20T08:46:36;92011.03;;;9.77;58.05
5952;BME280;3001;42.622;23.194;2023-02-20T08:49:03;92008.53;;;9.72;55.49
5952;BME280;3001;42.622;23.194;2023-02-20T08:51:29;92015.84;;;9.89;55.71
5952;BME280;3001;42.622;23.194;2023-02-20T08:53:56;92031.41;;;9.89;56.04
5952;BME280;3001;42.622;23.194;2023-02-20T08:56:23;92023.91;;;9.87;56.43
5952;BME280;3001;42.622;23.194;2023-02-20T08:58:49;92028.66;;;9.80;56.08
5952;BME280;3001;42.622;23.194;2023-02-20T09:01:16;92014.53;;;9.91;56.37
5952;BME280;3001;42.622;23.194;2023-02-20T09:03:44;92019.50;;;10.11;55.93
5952;BME280;3001;42.622;23.194;2023-02-20T09:06:11;92023.91;;;10.11;55.25
5952;BME280;3001;42.622;23.194;2023-02-20T09:08:37;92027.28;;;10.29;54.77
5952;BME280;3001;42.622;23.194;2023-02-20T09:11:04;92018.09;;;10.37;55.01
5952;BME280;3001;42.622;23.194;2023-02-20T09:13:32;92003.75;;;10.58;54.70
5952;BME280;3001;42.622;23.194;2023-02-20T09:15:59;92025.75;;;10.65;55.14
5952;BME280;3001;42.622;23.194;2023-02-20T09:18:25;92017.28;;;10.92;54.09
5952;BME280;3001;42.622;23.194;2023-02-20T09:20:53;92006.44;;;11.03;52.08
5952;BME280;3001;42.622;23.194;2023-02-20T09:23:20;92032.28;;;11.13;54.67
5952;BME280;3001;42.622;23.194;2023-02-20T09:25:49;92023.69;;;11.13;54.47
5952;BME280;3001;42.622;23.194;2023-02-20T09:28:17;91987.53;;;11.30;53.31
5952;BME280;3001;42.622;23.194;2023-02-20T09:30:44;91999.72;;;11.61;53.59
5952;BME280;3001;42.622;23.194;2023-02-20T09:33:10;92014.47;;;11.79;54.60
5952;BME280;3001;42.622;23.194;2023-02-20T09:35:37;92007.41;;;11.93;52.04
5952;BME280;3001;42.622;23.194;2023-02-20T09:38:05;92014.25;;;12.16;50.01
5952;BME280;3001;42.622;23.194;2023-02-20T09:40:32;92011.13;;;12.41;50.09
5952;BME280;3001;42.622;23.194;2023-02-20T09:43:13;91990.28;;;12.41;47.32
5952;BME280;3001;42.622;23.194;2023-02-20T09:45:48;92024.06;;;12.68;49.63
5952;BME280;3001;42.622;23.194;2023-02-20T09:48:26;92020.13;;;12.70;47.39
5952;BME280;3001;42.622;23.194;2023-02-20T09:50:56;92011.56;;;12.56;47.58
5952;BME280;3001;42.622;23.194;2023-02-20T09:53:29;92004.63;;;12.74;46.00
5952;BME280;3001;42.622;23.194;2023-02-20T09:55:58;92021.13;;;12.83;45.37
5952;BME280;3001;42.622;23.194;2023-02-20T09:58:31;91994.91;;;13.01;45.19
5952;BME280;3001;42.622;23.194;2023-02-20T10:01:03;92006.94;;;13.11;44.96
5952;BME280;3001;42.622;23.194;2023-02-20T10:03:34;91989.91;;;13.13;43.47
5952;BME280;3001;42.622;23.194;2023-02-20T10:06:14;92008.72;;;13.24;40.38
5952;BME280;3001;42.622;23.194;2023-02-20T10:08:43;91984.16;;;13.25;41.69
5952;BME280;3001;42.622;23.194;2023-02-20T10:11:14;91999.50;;;13.57;41.65
5952;BME280;3001;42.622;23.194;2023-02-20T10:13:53;91988.19;;;13.70;41.39
5952;BME280;3001;42.622;23.194;2023-02-20T10:16:29;91974.31;;;13.91;40.16
5952;BME280;3001;42.622;23.194;2023-02-20T10:19:10;91991.22;;;14.02;40.80
5952;BME280;3001;42.622;23.194;2023-02-20T10:21:48;91996.66;;;14.14;37.17
5952;BME280;3001;42.622;23.194;2023-02-20T10:24:26;91999.66;;;13.99;36.53
5952;BME280;3001;42.622;23.194;2023-02-20T10:26:56;91984.31;;;14.06;34.52
5952;BME280;3001;42.622;23.194;2023-02-20T10:29:30;91979.44;;;14.13;35.21
5952;BME280;3001;42.622;23.194;2023-02-20T10:32:02;91971.84;;;13.94;36.59
5952;BME280;3001;42.622;23.194;2023-02-20T10:34:34;91965.28;;;14.05;37.31
5952;BME280;3001;42.622;23.194;2023-02-20T10:37:07;91971.09;;;14.02;37.96
5952;BME280;3001;42.622;23.194;2023-02-20T10:39:37;91970.69;;;14.17;37.85
5952;BME280;3001;42.622;23.194;2023-02-20T10:42:09;91961.78;;;14.18;36.18
5952;BME280;3001;42.622;23.194;2023-02-20T10:44:40;91947.66;;;14.28;41.17
5952;BME280;3001;42.622;23.194;2023-02-20T10:47:13;91969.44;;;14.15;38.05
5952;BME280;3001;42.622;23.194;2023-02-20T10:49:49;91956.50;;;14.01;37.13
5952;BME280;3001;42.622;23.194;2023-02-20T10:52:21;91963.72;;;13.96;37.19
5952;BME280;3001;42.622;23.194;2023-02-20T10:54:54;91947.63;;;14.11;37.24
5952;BME280;3001;42.622;23.194;2023-02-20T10:57:28;91938.44;;;14.30;39.83
5952;BME280;3001;42.622;23.194;2023-02-20T11:00:00;91945.19;;;14.23;37.47
5952;BME280;3001;42.622;23.194;2023-02-20T11:02:33;91946.47;;;14.51;39.27
5952;BME280;3001;42.622;23.194;2023-02-20T11:05:04;91941.19;;;14.68;40.19
5952;BME280;3001;42.622;23.194;2023-02-20T11:07:32;91949.47;;;15.04;37.92
5952;BME280;3001;42.622;23.194;2023-02-20T11:10:01;91959.66;;;15.05;38.48
5952;BME280;3001;42.622;23.194;2023-02-20T11:12:30;91950.56;;;14.94;38.37
5952;BME280;3001;42.622;23.194;2023-02-20T11:15:00;91942.72;;;14.94;38.34
5952;BME280;3001;42.622;23.194;2023-02-20T11:17:31;91935.94;;;15.10;39.39
5952;BME280;3001;42.622;23.194;2023-02-20T11:20:01;91926.34;;;15.31;39.61
5952;BME280;3001;42.622;23.194;2023-02-20T11:22:41;91922.97;;;15.22;36.42
5952;BME280;3001;42.622;23.194;2023-02-20T11:25:17;91916.75;;;15.44;38.84
5952;BME280;3001;42.622;23.194;2023-02-20T11:27:46;91934.78;;;15.45;37.41
5952;BME280;3001;42.622;23.194;2023-02-20T11:30:27;91932.66;;;15.39;36.86
5952;BME280;3001;42.622;23.194;2023-02-20T11:33:01;91928.88;;;15.57;37.78
5952;BME280;3001;42.622;23.194;2023-02-20T11:35:30;91927.47;;;15.59;38.80
5952;BME280;3001;42.622;23.194;2023-02-20T11:38:25;91920.38;;;15.68;37.69
5952;BME280;3001;42.622;23.194;2023-02-20T11:41:06;91926.84;;;15.99;37.20
5952;BME280;3001;42.622;23.194;2023-02-20T11:43:35;91931.13;;;16.04;36.98
5952;BME280;3001;42.622;23.194;2023-02-20T11:46:11;91923.53;;;16.11;37.28
5952;BME280;3001;42.622;23.194;2023-02-20T11:48:57;91932.53;;;16.22;37.01
5952;BME280;3001;42.622;23.194;2023-02-20T11:51:33;91933.00;;;15.95;35.90
5952;BME280;3001;42.622;23.194;2023-02-20T11:54:08;91944.13;;;15.92;37.52
5952;BME280;3001;42.622;23.194;2023-02-20T11:56:37;91923.66;;;15.85;36.18
5952;BME280;3001;42.622;23.194;2023-02-20T11:59:27;91932.47;;;15.81;36.85
5952;BME280;3001;42.622;23.194;2023-02-20T12:01:55;91952.75;;;15.92;36.67
5952;BME280;3001;42.622;23.194;2023-02-20T12:04:36;91941.03;;;15.98;35.89
5952;BME280;3001;42.622;23.194;2023-02-20T12:07:16;91946.47;;;16.14;35.75
5952;BME280;3001;42.622;23.194;2023-02-20T12:09:46;91920.34;;;16.26;33.79
5952;BME280;3001;42.622;23.194;2023-02-20T12:12:17;91928.63;;;16.36;34.87
5952;BME280;3001;42.622;23.194;2023-02-20T12:14:48;91913.59;;;16.45;35.16
5952;BME280;3001;42.622;23.194;2023-02-20T12:17:22;91930.88;;;16.67;34.23
5952;BME280;3001;42.622;23.194;2023-02-20T12:19:59;91930.03;;;16.75;32.35
5952;BME280;3001;42.622;23.194;2023-02-20T12:22:31;91926.44;;;16.79;33.44
5952;BME280;3001;42.622;23.194;2023-02-20T12:25:17;91939.94;;;17.22;33.47
5952;BME280;3001;42.622;23.194;2023-02-20T12:27:56;91940.47;;;17.36;33.32
5952;BME280;3001;42.622;23.194;2023-02-20T12:30:34;91945.56;;;17.33;32.06
5952;BME280;3001;42.622;23.194;2023-02-20T12:33:17;91938.94;;;17.47;31.57
5952;BME280;3001;42.622;23.194;2023-02-20T12:35:54;91934.34;;;17.56;32.00
5952;BME280;3001;42.622;23.194;2023-02-20T12:38:31;91936.25;;;17.79;33.81
5952;BME280;3001;42.622;23.194;2023-02-20T12:41:19;91922.53;;;17.74;30.31
5952;BME280;3001;42.622;23.194;2023-02-20T12:44:00;91924.72;;;17.16;32.09
5952;BME280;3001;42.622;23.194;2023-02-20T12:46:36;91930.41;;;17.18;33.61
5952;BME280;3001;42.622;23.194;2023-02-20T12:49:21;91928.13;;;17.16;33.59
5952;BME280;3001;42.622;23.194;2023-02-20T12:51:57;91930.19;;;17.23;32.94
5952;BME280;3001;42.622;23.194;2023-02-20T12:54:35;91929.09;;;17.24;32.95
5952;BME280;3001;42.622;23.194;2023-02-20T12:57:12;91921.88;;;17.21;32.66
5952;BME280;3001;42.622;23.194;2023-02-20T12:59:49;91928.00;;;16.92;33.24
5952;BME280;3001;42.622;23.194;2023-02-20T13:02:24;91924.72;;;16.83;33.72
5952;BME280;3001;42.622;23.194;2023-02-20T13:04:56;91910.19;;;16.65;33.96
5952;BME280;3001;42.622;23.194;2023-02-20T13:07:29;91908.47;;;16.69;34.50
5952;BME280;3001;42.622;23.194;2023-02-20T13:10:03;91904.56;;;16.75;34.90
5952;BME280;3001;42.622;23.194;2023-02-20T13:12:32;91903.22;;;16.69;34.85
5952;BME280;3001;42.622;23.194;2023-02-20T13:15:09;91893.81;;;16.68;36.07
5952;BME280;3001;42.622;23.194;2023-02-20T13:17:41;91915.50;;;16.57;35.36
5952;BME280;3001;42.622;23.194;2023-02-20T13:20:17;91909.31;;;16.41;36.08
5952;BME280;3001;42.622;23.194;2023-02-20T13:22:57;91912.44;;;16.55;36.41
5952;BME280;3001;42.622;23.194;2023-02-20T13:25:37;91928.69;;;16.69;36.13
5952;BME280;3001;42.622;23.194;2023-02-20T13:28:21;91931.69;;;16.59;35.96
5952;BME280;3001;42.622;23.194;2023-02-20T13:31:11;91933.56;;;16.58;34.69
5952;BME280;3001;42.622;23.194;2023-02-20T13:33:40;91943.72;;;16.39;35.74
5952;BME280;3001;42.622;23.194;2023-02-20T13:42:29;91923.75;;;16.67;35.91
5952;BME280;3001;42.622;23.194;2023-02-20T13:44:56;91919.53;;;16.95;35.27
5952;BME280;3001;42.622;23.194;2023-02-20T13:47:33;91923.34;;;16.98;34.79
5952;BME280;3001;42.622;23.194;2023-02-20T13:50:26;91925.59;;;16.87;34.47